sensor_id;sensor_type;location;lat;lon;timestamp;pressure;altitude;pressure_sealevel;temperature;humidity
60244;BME280;46106;51.468;5.814;2023-02-16T00:01:21;102126.75;;;5.96;100.00
60244;BME280;46106;51.468;5.814;2023-02-16T00:03:49;102135.69;;;5.99;100.00
60244;BME280;46106;51.468;5.814;2023-02-16T00:06:15;102125.25;;;5.87;100.00
60244;BME280;46106;51.468;5.814;2023-02-16T00:08:45;102122.75;;;5.82;100.00
60244;BME280;46106;51.468;5.814;2023-02-16T00:11:30;102121.91;;;5.80;100.00
60244;BME280;46106;51.468;5.814;2023-02-16T00:14:15;102119.50;;;5.73;100.00
60244;BME280;46106;51.468;5.814;2023-02-16T00:16:41;102115.00;;;5.71;100.00
60244;BME280;46106;51.468;5.814;2023-02-16T00:19:25;102109.56;;;5.71;100.00
60244;BME280;46106;51.468;5.814;2023-02-16T00:21:54;102106.13;;;5.66;100.00
60244;BME280;46106;51.468;5.814;2023-02-16T00:24:21;102104.41;;;5.64;100.00
60244;BME280;46106;51.468;5.814;2023-02-16T00:26:47;102109.13;;;5.59;100.00
60244;BME280;46106;51.468;5.814;2023-02-16T00:29:23;102105.66;;;5.55;100.00
60244;BME280;46106;51.468;5.814;2023-02-16T00:31:49;102113.03;;;5.51;100.00
60244;BME280;46106;51.468;5.814;2023-02-16T00:34:30;102117.78;;;5.46;100.00
60244;BME280;46106;51.468;5.814;2023-02-16T00:36:57;102100.03;;;5.36;100.00
60244;BME280;46106;51.468;5.814;2023-02-16T00:39:23;102100.72;;;5.43;100.00
60244;BME280;46106;51.468;5.814;2023-02-16T00:42:11;102108.75;;;5.44;100.00
60244;BME280;46106;51.468;5.814;2023-02-16T00:44:39;102105.38;;;5.38;100.00
60244;BME280;46106;51.468;5.814;2023-02-16T00:47:26;102111.91;;;5.33;100.00
60244;BME280;46106;51.468;5.814;2023-02-16T00:49:54;102112.56;;;5.40;100.00
60244;BME280;46106;51.468;5.814;2023-02-16T00:52:30;102115.28;;;5.40;100.00
60244;BME280;46106;51.468;5.814;2023-02-16T00:54:56;102115.44;;;5.36;100.00
60244;BME280;46106;51.468;5.814;2023-02-16T00:57:23;102107.50;;;5.29;100.00
60244;BME280;46106;51.468;5.814;2023-02-16T00:59:59;102114.41;;;5.40;100.00
60244;BME280;46106;51.468;5.814;2023-02-16T01:02:25;102107.66;;;5.26;100.00
60244;BME280;46106;51.468;5.814;2023-02-16T01:04:51;102112.13;;;5.27;100.00
60244;BME280;46106;51.468;5.814;2023-02-16T01:07:16;102091.56;;;5.20;100.00
60244;BME280;46106;51.468;5.814;2023-02-16T01:10:01;102118.66;;;5.22;100.00
60244;BME280;46106;51.468;5.814;2023-02-16T01:12:45;102116.88;;;5.21;100.00
60244;BME280;46106;51.468;5.814;2023-02-16T01:15:12;102107.25;;;5.12;100.00
60244;BME280;46106;51.468;5.814;2023-02-16T01:17:38;102108.13;;;5.12;100.00
60244;BME280;46106;51.468;5.814;2023-02-16T01:20:15;102107.41;;;5.07;100.00
60244;BME280;46106;51.468;5.814;2023-02-16T01:22:42;102112.03;;;5.05;100.00
60244;BME280;46106;51.468;5.814;2023-02-16T01:25:07;102111.41;;;4.97;100.00
60244;BME280;46106;51.468;5.814;2023-02-16T01:27:35;102105.19;;;4.93;100.00
60244;BME280;46106;51.468;5.814;2023-02-16T01:30:02;102102.69;;;4.87;100.00
60244;BME280;46106;51.468;5.814;2023-02-16T01:32:28;102091.91;;;4.86;100.00
60244;BME280;46106;51.468;5.814;2023-02-16T01:34:53;102103.53;;;4.89;100.00
60244;BME280;46106;51.468;5.814;2023-02-16T01:37:19;102098.97;;;4.90;100.00
60244;BME280;46106;51.468;5.814;2023-02-16T01:39:44;102090.28;;;4.80;100.00
60244;BME280;46106;51.468;5.814;2023-02-16T01:45:14;102101.91;;;4.84;100.00
60244;BME280;46106;51.468;5.814;2023-02-16T01:47:46;102097.63;;;4.76;100.00
60244;BME280;46106;51.468;5.814;2023-02-16T01:50:25;102097.75;;;4.73;100.00
60244;BME280;46106;51.468;5.814;2023-02-16T01:52:52;102091.59;;;4.68;100.00
60244;BME280;46106;51.468;5.814;2023-02-16T01:55:27;102088.06;;;4.66;100.00
60244;BME280;46106;51.468;5.814;2023-02-16T01:57:59;102089.03;;;4.64;100.00
60244;BME280;46106;51.468;5.814;2023-02-16T02:00:30;102080.91;;;4.64;100.00
60244;BME280;46106;51.468;5.814;2023-02-16T02:06:11;102061.28;;;4.55;100.00
60244;BME280;46106;51.468;5.814;2023-02-16T02:08:55;102058.41;;;4.60;100.00
60244;BME280;46106;51.468;5.814;2023-02-16T02:11:34;102051.00;;;4.65;100.00
60244;BME280;46106;51.468;5.814;2023-02-16T02:14:10;102049.34;;;4.61;100.00
60244;BME280;46106;51.468;5.814;2023-02-16T02:16:37;102023.75;;;4.43;100.00
60244;BME280;46106;51.468;5.814;2023-02-16T02:19:03;102035.44;;;4.45;100.00
60244;BME280;46106;51.468;5.814;2023-02-16T02:31:08;102042.00;;;4.38;100.00
60244;BME280;46106;51.468;5.814;2023-02-16T02:38:35;102051.06;;;4.37;100.00
60244;BME280;46106;51.468;5.814;2023-02-16T02:41:17;102049.34;;;4.34;100.00
60244;BME280;46106;51.468;5.814;2023-02-16T02:43:51;102049.25;;;4.37;100.00
60244;BME280;46106;51.468;5.814;2023-02-16T02:46:30;102041.25;;;4.33;100.00
60244;BME280;46106;51.468;5.814;2023-02-16T02:48:57;102030.59;;;4.28;100.00
60244;BME280;46106;51.468;5.814;2023-02-16T02:51:23;102034.34;;;4.24;100.00
60244;BME280;46106;51.468;5.814;2023-02-16T02:59:39;102035.22;;;4.24;100.00
60244;BME280;46106;51.468;5.814;2023-02-16T03:02:26;102036.38;;;4.17;100.00
60244;BME280;46106;51.468;5.814;2023-02-16T03:04:54;102022.97;;;4.13;100.00
60244;BME280;46106;51.468;5.814;2023-02-16T03:07:22;102018.44;;;4.13;100.00
60244;BME280;46106;51.468;5.814;2023-02-16T03:10:08;102003.06;;;4.14;100.00
60244;BME280;46106;51.468;5.814;2023-02-16T03:12:53;102008.47;;;4.14;100.00
60244;BME280;46106;51.468;5.814;2023-02-16T03:15:21;102003.84;;;4.17;100.00
60244;BME280;46106;51.468;5.814;2023-02-16T03:17:50;102007.53;;;4.15;100.00
60244;BME280;46106;51.468;5.814;2023-02-16T03:20:37;102000.50;;;4.09;100.00
60244;BME280;46106;51.468;5.814;2023-02-16T03:23:21;102009.59;;;4.07;100.00
60244;BME280;46106;51.468;5.814;2023-02-16T03:26:05;101999.78;;;4.04;100.00
60244;BME280;46106;51.468;5.814;2023-02-16T03:28:50;102002.47;;;4.04;100.00
60244;BME280;46106;51.468;5.814;2023-02-16T03:31:35;102007.59;;;4.13;100.00
60244;BME280;46106;51.468;5.814;2023-02-16T03:34:03;102005.88;;;4.11;100.00
60244;BME280;46106;51.468;5.814;2023-02-16T03:36:32;102002.44;;;4.05;100.00
60244;BME280;46106;51.468;5.814;2023-02-16T03:38:59;102009.69;;;4.05;100.00
60244;BME280;46106;51.468;5.814;2023-02-16T03:41:25;102006.75;;;4.11;100.00
60244;BME280;46106;51.468;5.814;2023-02-16T03:43:51;102013.19;;;4.09;100.00
60244;BME280;46106;51.468;5.814;2023-02-16T03:46:16;101998.00;;;4.03;100.00
60244;BME280;46106;51.468;5.814;2023-02-16T03:48:42;102016.72;;;4.11;100.00
60244;BME280;46106;51.468;5.814;2023-02-16T03:51:07;102010.72;;;4.01;100.00
60244;BME280;46106;51.468;5.814;2023-02-16T03:53:33;101988.34;;;3.94;100.00
60244;BME280;46106;51.468;5.814;2023-02-16T03:55:58;102007.91;;;4.04;100.00
60244;BME280;46106;51.468;5.814;2023-02-16T03:58:24;101999.78;;;4.04;100.00
60244;BME280;46106;51.468;5.814;2023-02-16T04:00:50;102000.78;;;4.00;100.00
60244;BME280;46106;51.468;5.814;2023-02-16T04:03:16;101981.38;;;3.87;100.00
60244;BME280;46106;51.468;5.814;2023-02-16T04:05:42;102011.91;;;3.92;100.00
60244;BME280;46106;51.468;5.814;2023-02-16T04:08:08;102013.56;;;3.96;100.00
60244;BME280;46106;51.468;5.814;2023-02-16T04:10:34;102006.50;;;3.92;100.00
60244;BME280;46106;51.468;5.814;2023-02-16T04:13:00;101996.63;;;3.90;100.00
60244;BME280;46106;51.468;5.814;2023-02-16T04:15:27;101994.75;;;3.92;100.00
60244;BME280;46106;51.468;5.814;2023-02-16T04:17:53;102001.16;;;3.89;100.00
60244;BME280;46106;51.468;5.814;2023-02-16T04:20:21;101996.81;;;3.83;100.00
60244;BME280;46106;51.468;5.814;2023-02-16T04:22:47;102005.22;;;3.76;100.00
60244;BME280;46106;51.468;5.814;2023-02-16T04:25:13;102006.00;;;3.79;100.00
60244;BME280;46106;51.468;5.814;2023-02-16T04:27:40;102016.00;;;3.77;100.00
60244;BME280;46106;51.468;5.814;2023-02-16T04:30:06;102017.66;;;3.81;100.00
60244;BME280;46106;51.468;5.814;2023-02-16T04:32:32;102015.69;;;3.86;100.00
60244;BME280;46106;51.468;5.814;2023-02-16T04:34:57;102006.72;;;3.84;100.00
60244;BME280;46106;51.468;5.814;2023-02-16T04:37:23;102014.66;;;3.91;100.00
60244;BME280;46106;51.468;5.814;2023-02-16T04:39:48;102014.34;;;4.00;100.00
60244;BME280;46106;51.468;5.814;2023-02-16T04:42:14;102012.59;;;3.99;100.00
60244;BME280;46106;51.468;5.814;2023-02-16T04:44:39;102016.03;;;4.04;100.00
60244;BME280;46106;51.468;5.814;2023-02-16T04:47:05;102009.84;;;4.00;100.00
60244;BME280;46106;51.468;5.814;2023-02-16T04:49:30;102004.41;;;4.00;100.00
60244;BME280;46106;51.468;5.814;2023-02-16T04:51:56;101983.03;;;3.91;100.00
60244;BME280;46106;51.468;5.814;2023-02-16T04:54:21;101983.75;;;3.96;100.00
60244;BME280;46106;51.468;5.814;2023-02-16T04:56:47;102002.00;;;3.91;100.00
60244;BME280;46106;51.468;5.814;2023-02-16T04:59:14;102012.78;;;3.93;100.00
60244;BME280;46106;51.468;5.814;2023-02-16T05:01:40;102011.97;;;3.91;100.00
60244;BME280;46106;51.468;5.814;2023-02-16T05:04:06;102015.53;;;3.91;100.00
60244;BME280;46106;51.468;5.814;2023-02-16T05:06:34;102016.31;;;3.95;100.00
60244;BME280;46106;51.468;5.814;2023-02-16T05:08:59;102001.84;;;3.96;100.00
60244;BME280;46106;51.468;5.814;2023-02-16T05:11:25;101985.84;;;3.88;100.00
60244;BME280;46106;51.468;5.814;2023-02-16T05:14:17;101985.69;;;3.93;100.00
60244;BME280;46106;51.468;5.814;2023-02-16T05:17:01;101996.56;;;3.91;100.00
60244;BME280;46106;51.468;5.814;2023-02-16T05:19:26;101990.91;;;3.99;100.00
60244;BME280;46106;51.468;5.814;2023-02-16T05:21:51;102002.38;;;4.07;100.00
60244;BME280;46106;51.468;5.814;2023-02-16T05:24:17;101993.16;;;4.13;100.00
60244;BME280;46106;51.468;5.814;2023-02-16T05:26:42;101994.97;;;4.12;100.00
60244;BME280;46106;51.468;5.814;2023-02-16T05:29:08;101983.41;;;4.07;100.00
60244;BME280;46106;51.468;5.814;2023-02-16T05:31:33;101994.25;;;4.07;100.00
60244;BME280;46106;51.468;5.814;2023-02-16T05:33:59;102006.66;;;4.14;100.00
60244;BME280;46106;51.468;5.814;2023-02-16T05:36:24;101990.44;;;4.13;100.00
60244;BME280;46106;51.468;5.814;2023-02-16T05:38:50;101992.06;;;4.18;100.00
60244;BME280;46106;51.468;5.814;2023-02-16T05:41:16;102002.88;;;4.20;100.00
60244;BME280;46106;51.468;5.814;2023-02-16T05:43:59;102012.53;;;4.27;100.00
60244;BME280;46106;51.468;5.814;2023-02-16T05:46:26;101999.72;;;4.32;100.00
60244;BME280;46106;51.468;5.814;2023-02-16T05:48:52;101994.34;;;4.31;100.00
60244;BME280;46106;51.468;5.814;2023-02-16T05:51:19;102000.59;;;4.33;100.00
60244;BME280;46106;51.468;5.814;2023-02-16T05:53:45;101999.72;;;4.32;100.00
60244;BME280;46106;51.468;5.814;2023-02-16T05:56:11;101996.94;;;4.34;100.00
60244;BME280;46106;51.468;5.814;2023-02-16T05:58:36;101978.03;;;4.32;100.00
60244;BME280;46106;51.468;5.814;2023-02-16T06:01:02;101963.81;;;4.26;100.00
60244;BME280;46106;51.468;5.814;2023-02-16T06:03:28;101981.56;;;4.34;100.00
60244;BME280;46106;51.468;5.814;2023-02-16T06:05:55;101988.81;;;4.34;100.00
60244;BME280;46106;51.468;5.814;2023-02-16T06:08:21;101975.38;;;4.31;100.00
60244;BME280;46106;51.468;5.814;2023-02-16T06:10:51;101979.00;;;4.31;100.00
60244;BME280;46106;51.468;5.814;2023-02-16T06:13:17;101979.72;;;4.36;100.00
60244;BME280;46106;51.468;5.814;2023-02-16T06:15:42;101996.13;;;4.32;100.00
60244;BME280;46106;51.468;5.814;2023-02-16T06:18:09;101997.00;;;4.32;100.00
60244;BME280;46106;51.468;5.814;2023-02-16T06:20:36;101989.06;;;4.26;100.00
60244;BME280;46106;51.468;5.814;2023-02-16T06:23:02;101996.28;;;4.27;100.00
60244;BME280;46106;51.468;5.814;2023-02-16T06:25:27;101998.78;;;4.33;100.00
60244;BME280;46106;51.468;5.814;2023-02-16T06:27:53;101993.25;;;4.36;100.00
60244;BME280;46106;51.468;5.814;2023-02-16T06:30:21;101984.31;;;4.33;100.00
60244;BME280;46106;51.468;5.814;2023-02-16T06:32:47;101970.63;;;4.37;100.00
60244;BME280;46106;51.468;5.814;2023-02-16T06:35:12;101973.28;;;4.39;100.00
60244;BME280;46106;51.468;5.814;2023-02-16T06:37:38;101966.09;;;4.38;100.00
60244;BME280;46106;51.468;5.814;2023-02-16T06:40:04;101988.41;;;4.46;100.00
60244;BME280;46106;51.468;5.814;2023-02-16T06:42:29;101997.47;;;4.45;100.00
60244;BME280;46106;51.468;5.814;2023-02-16T06:44:55;101965.28;;;4.34;100.00
60244;BME280;46106;51.468;5.814;2023-02-16T06:47:20;101998.09;;;4.53;100.00
60244;BME280;46106;51.468;5.814;2023-02-16T06:49:45;101991.13;;;4.46;100.00
60244;BME280;46106;51.468;5.814;2023-02-16T06:52:11;101988.28;;;4.49;100.00
60244;BME280;46106;51.468;5.814;2023-02-16T06:54:36;101994.44;;;4.54;100.00
60244;BME280;46106;51.468;5.814;2023-02-16T06:57:02;101989.28;;;4.47;100.00
60244;BME280;46106;51.468;5.814;2023-02-16T06:59:27;102002.59;;;4.54;100.00
60244;BME280;46106;51.468;5.814;2023-02-16T07:01:52;102004.28;;;4.57;100.00
60244;BME280;46106;51.468;5.814;2023-02-16T07:04:18;102006.94;;;4.58;100.00
60244;BME280;46106;51.468;5.814;2023-02-16T07:06:43;102004.94;;;4.64;100.00
60244;BME280;46106;51.468;5.814;2023-02-16T07:09:09;102009.44;;;4.65;100.00
60244;BME280;46106;51.468;5.814;2023-02-16T07:11:34;102010.47;;;4.60;100.00
60244;BME280;46106;51.468;5.814;2023-02-16T07:14:00;102016.41;;;4.72;100.00
60244;BME280;46106;51.468;5.814;2023-02-16T07:16:25;102008.31;;;4.70;100.00
60244;BME280;46106;51.468;5.814;2023-02-16T07:18:51;102009.19;;;4.72;100.00
60244;BME280;46106;51.468;5.814;2023-02-16T07:21:16;102017.13;;;4.77;100.00
60244;BME280;46106;51.468;5.814;2023-02-16T07:23:42;102017.06;;;4.78;100.00
60244;BME280;46106;51.468;5.814;2023-02-16T07:26:07;102028.59;;;4.85;100.00
60244;BME280;46106;51.468;5.814;2023-02-16T07:28:33;102025.81;;;4.87;100.00
60244;BME280;46106;51.468;5.814;2023-02-16T07:31:07;102024.94;;;4.86;100.00
60244;BME280;46106;51.468;5.814;2023-02-16T07:33:33;102020.22;;;4.91;100.00
60244;BME280;46106;51.468;5.814;2023-02-16T07:35:58;102022.00;;;4.92;100.00
60244;BME280;46106;51.468;5.814;2023-02-16T07:38:24;102015.75;;;4.90;100.00
60244;BME280;46106;51.468;5.814;2023-02-16T07:40:49;102028.22;;;4.96;100.00
60244;BME280;46106;51.468;5.814;2023-02-16T07:43:15;102025.31;;;5.01;100.00
60244;BME280;46106;51.468;5.814;2023-02-16T07:45:40;102023.31;;;5.06;100.00
60244;BME280;46106;51.468;5.814;2023-02-16T07:48:06;102020.56;;;5.07;100.00
60244;BME280;46106;51.468;5.814;2023-02-16T07:50:32;102021.91;;;5.19;100.00
60244;BME280;46106;51.468;5.814;2023-02-16T07:53:00;102004.63;;;5.22;100.00
60244;BME280;46106;51.468;5.814;2023-02-16T07:55:26;102013.38;;;5.30;100.00
60244;BME280;46106;51.468;5.814;2023-02-16T07:57:52;102014.97;;;5.36;100.00
60244;BME280;46106;51.468;5.814;2023-02-16T08:00:21;102020.28;;;5.39;100.00
60244;BME280;46106;51.468;5.814;2023-02-16T08:02:46;102022.81;;;5.43;100.00
60244;BME280;46106;51.468;5.814;2023-02-16T08:05:12;102026.06;;;5.53;100.00
60244;BME280;46106;51.468;5.814;2023-02-16T08:07:37;102021.38;;;5.57;100.00
60244;BME280;46106;51.468;5.814;2023-02-16T08:10:04;102027.28;;;5.68;100.00
60244;BME280;46106;51.468;5.814;2023-02-16T08:12:31;102028.56;;;5.81;100.00
60244;BME280;46106;51.468;5.814;2023-02-16T08:14:56;102011.66;;;5.97;100.00
60244;BME280;46106;51.468;5.814;2023-02-16T08:17:21;102006.47;;;6.13;100.00
60244;BME280;46106;51.468;5.814;2023-02-16T08:19:47;102003.50;;;6.19;100.00
60244;BME280;46106;51.468;5.814;2023-02-16T08:22:13;102010.25;;;6.31;100.00
60244;BME280;46106;51.468;5.814;2023-02-16T08:24:39;102014.50;;;6.38;100.00
60244;BME280;46106;51.468;5.814;2023-02-16T08:27:04;102005.03;;;6.47;100.00
60244;BME280;46106;51.468;5.814;2023-02-16T08:29:31;102014.06;;;6.47;100.00
60244;BME280;46106;51.468;5.814;2023-02-16T08:31:57;102013.47;;;6.40;100.00
60244;BME280;46106;51.468;5.814;2023-02-16T08:34:23;102025.16;;;6.42;100.00
60244;BME280;46106;51.468;5.814;2023-02-16T08:36:54;102028.44;;;6.51;100.00
60244;BME280;46106;51.468;5.814;2023-02-16T08:39:26;102030.06;;;6.55;100.00
60244;BME280;46106;51.468;5.814;2023-02-16T08:41:53;102026.38;;;6.56;100.00
60244;BME280;46106;51.468;5.814;2023-02-16T08:44:20;102027.09;;;6.61;100.00
60244;BME280;46106;51.468;5.814;2023-02-16T08:46:47;102036.88;;;6.65;100.00
60244;BME280;46106;51.468;5.814;2023-02-16T08:49:15;102037.63;;;6.69;100.00
60244;BME280;46106;51.468;5.814;2023-02-16T08:51:45;102041.13;;;6.72;100.00
60244;BME280;46106;51.468;5.814;2023-02-16T08:54:17;102044.72;;;6.73;100.00
60244;BME280;46106;51.468;5.814;2023-02-16T08:56:44;102043.69;;;6.75;100.00
60244;BME280;46106;51.468;5.814;2023-02-16T08:59:13;102042.88;;;6.73;100.00
60244;BME280;46106;51.468;5.814;2023-02-16T09:01:38;102052.69;;;6.77;100.00
60244;BME280;46106;51.468;5.814;2023-02-16T09:04:04;102042.75;;;6.76;100.00
60244;BME280;46106;51.468;5.814;2023-02-16T09:06:31;102052.41;;;6.84;100.00
60244;BME280;46106;51.468;5.814;2023-02-16T09:08:57;102067.53;;;6.91;100.00
60244;BME280;46106;51.468;5.814;2023-02-16T09:11:23;102064.88;;;6.89;100.00
60244;BME280;46106;51.468;5.814;2023-02-16T09:13:50;102055.81;;;6.89;100.00
60244;BME280;46106;51.468;5.814;2023-02-16T09:16:18;102063.81;;;6.92;100.00
60244;BME280;46106;51.468;5.814;2023-02-16T09:18:45;102064.81;;;6.91;100.00
60244;BME280;46106;51.468;5.814;2023-02-16T09:21:13;102064.66;;;6.94;100.00
60244;BME280;46106;51.468;5.814;2023-02-16T09:23:41;102069.34;;;6.90;100.00
60244;BME280;46106;51.468;5.814;2023-02-16T09:26:08;102070.13;;;6.94;100.00
60244;BME280;46106;51.468;5.814;2023-02-16T09:28:37;102063.91;;;6.90;100.00
60244;BME280;46106;51.468;5.814;2023-02-16T09:31:16;102073.66;;;6.96;100.00
60244;BME280;46106;51.468;5.814;2023-02-16T09:33:44;102079.09;;;6.96;100.00
60244;BME280;46106;51.468;5.814;2023-02-16T09:36:11;102072.00;;;6.92;100.00
60244;BME280;46106;51.468;5.814;2023-02-16T09:38:38;102070.78;;;6.99;100.00
60244;BME280;46106;51.468;5.814;2023-02-16T09:43:49;102082.63;;;6.98;100.00
60244;BME280;46106;51.468;5.814;2023-02-16T09:46:20;102069.06;;;6.96;100.00
60244;BME280;46106;51.468;5.814;2023-02-16T09:48:48;102075.13;;;7.03;100.00
60244;BME280;46106;51.468;5.814;2023-02-16T09:51:22;102091.34;;;7.06;100.00
60244;BME280;46106;51.468;5.814;2023-02-16T09:53:56;102095.84;;;7.07;100.00
60244;BME280;46106;51.468;5.814;2023-02-16T09:56:28;102081.13;;;7.11;100.00
60244;BME280;46106;51.468;5.814;2023-02-16T09:59:03;102067.38;;;7.14;100.00
60244;BME280;46106;51.468;5.814;2023-02-16T10:01:50;102082.38;;;7.25;100.00
60244;BME280;46106;51.468;5.814;2023-02-16T10:04:40;102079.34;;;7.31;100.00
60244;BME280;46106;51.468;5.814;2023-02-16T10:07:28;102075.31;;;7.40;100.00
60244;BME280;46106;51.468;5.814;2023-02-16T10:09:58;102076.47;;;7.34;100.00
60244;BME280;46106;51.468;5.814;2023-02-16T10:12:32;102071.41;;;7.45;100.00
60244;BME280;46106;51.468;5.814;2023-02-16T10:15:08;102064.06;;;7.47;100.00
60244;BME280;46106;51.468;5.814;2023-02-16T10:17:47;102051.53;;;7.43;100.00
60244;BME280;46106;51.468;5.814;2023-02-16T10:20:34;102058.66;;;7.46;100.00
60244;BME280;46106;51.468;5.814;2023-02-16T10:26:04;102050.34;;;7.49;100.00
60244;BME280;46106;51.468;5.814;2023-02-16T10:42:53;102060.00;;;7.37;100.00
60244;BME280;46106;51.468;5.814;2023-02-16T10:45:30;102055.66;;;7.33;100.00
60244;BME280;46106;51.468;5.814;2023-02-16T10:47:58;102040.47;;;7.27;100.00
60244;BME280;46106;51.468;5.814;2023-02-16T10:50:30;102050.88;;;7.38;100.00
60244;BME280;46106;51.468;5.814;2023-02-16T10:53:00;102063.44;;;7.41;100.00
60244;BME280;46106;51.468;5.814;2023-02-16T10:55:28;102062.56;;;7.40;100.00
60244;BME280;46106;51.468;5.814;2023-02-16T10:58:02;102067.09;;;7.41;100.00
60244;BME280;46106;51.468;5.814;2023-02-16T11:00:53;102043.38;;;7.43;100.00
60244;BME280;46106;51.468;5.814;2023-02-16T11:03:23;102060.38;;;7.48;100.00
60244;BME280;46106;51.468;5.814;2023-02-16T11:05:49;102053.16;;;7.47;100.00
60244;BME280;46106;51.468;5.814;2023-02-16T11:08:16;102050.00;;;7.57;100.00
60244;BME280;46106;51.468;5.814;2023-02-16T11:10:50;102042.50;;;7.62;100.00
60244;BME280;46106;51.468;5.814;2023-02-16T11:15:55;102058.34;;;7.72;100.00
60244;BME280;46106;51.468;5.814;2023-02-16T11:18:41;102053.63;;;7.76;100.00
60244;BME280;46106;51.468;5.814;2023-02-16T11:21:09;102053.47;;;7.79;100.00
60244;BME280;46106;51.468;5.814;2023-02-16T11:23:39;102062.53;;;7.80;100.00
60244;BME280;46106;51.468;5.814;2023-02-16T11:28:38;102058.59;;;7.85;100.00
60244;BME280;46106;51.468;5.814;2023-02-16T11:33:36;102056.06;;;7.82;100.00
60244;BME280;46106;51.468;5.814;2023-02-16T11:36:20;102084.56;;;7.75;100.00
60244;BME280;46106;51.468;5.814;2023-02-16T11:38:58;102087.66;;;7.67;100.00
60244;BME280;46106;51.468;5.814;2023-02-16T11:41:25;102074.53;;;7.57;100.00
60244;BME280;46106;51.468;5.814;2023-02-16T11:43:51;102082.72;;;7.57;100.00
60244;BME280;46106;51.468;5.814;2023-02-16T11:46:19;102073.06;;;7.49;100.00
60244;BME280;46106;51.468;5.814;2023-02-16T11:48:45;102066.91;;;7.44;100.00
60244;BME280;46106;51.468;5.814;2023-02-16T11:51:13;102048.00;;;7.41;100.00
60244;BME280;46106;51.468;5.814;2023-02-16T11:53:43;102039.59;;;7.46;100.00
60244;BME280;46106;51.468;5.814;2023-02-16T11:56:23;102040.63;;;7.43;100.00
60244;BME280;46106;51.468;5.814;2023-02-16T12:04:35;102007.41;;;7.54;100.00
60244;BME280;46106;51.468;5.814;2023-02-16T12:10:07;102016.75;;;7.86;100.00
60244;BME280;46106;51.468;5.814;2023-02-16T12:20:32;102004.44;;;7.97;100.00
60244;BME280;46106;51.468;5.814;2023-02-16T12:23:13;101978.66;;;7.85;100.00
60244;BME280;46106;51.468;5.814;2023-02-16T12:28:26;101996.25;;;7.97;100.00
60244;BME280;46106;51.468;5.814;2023-02-16T12:30:58;101987.28;;;7.95;100.00
60244;BME280;46106;51.468;5.814;2023-02-16T12:41:12;101985.88;;;8.22;100.00
60244;BME280;46106;51.468;5.814;2023-02-16T12:43:44;101968.97;;;8.33;100.00
60244;BME280;46106;51.468;5.814;2023-02-16T12:46:23;101970.06;;;8.48;100.00
60244;BME280;46106;51.468;5.814;2023-02-16T12:49:03;101963.78;;;8.63;100.00
60244;BME280;46106;51.468;5.814;2023-02-16T12:51:37;101962.69;;;8.83;100.00
60244;BME280;46106;51.468;5.814;2023-02-16T12:54:13;101949.63;;;9.06;100.00
60244;BME280;46106;51.468;5.814;2023-02-16T12:56:47;101950.13;;;9.30;100.00
60244;BME280;46106;51.468;5.814;2023-02-16T12:59:30;101945.13;;;9.38;100.00
60244;BME280;46106;51.468;5.814;2023-02-16T13:02:00;101933.09;;;9.41;100.00
60244;BME280;46106;51.468;5.814;2023-02-16T13:07:09;101926.88;;;9.71;100.00
60244;BME280;46106;51.468;5.814;2023-02-16T13:10:03;101922.19;;;9.73;100.00
60244;BME280;46106;51.468;5.814;2023-02-16T13:12:36;101927.81;;;9.70;100.00
60244;BME280;46106;51.468;5.814;2023-02-16T13:15:15;101922.25;;;9.87;100.00
60244;BME280;46106;51.468;5.814;2023-02-16T13:17:54;101928.84;;;9.99;100.00
60244;BME280;46106;51.468;5.814;2023-02-16T13:20:21;101929.03;;;9.96;100.00
60244;BME280;46106;51.468;5.814;2023-02-16T13:45:24;101879.41;;;10.33;100.00
60244;BME280;46106;51.468;5.814;2023-02-16T13:47:52;101874.28;;;10.57;100.00
60244;BME280;46106;51.468;5.814;2023-02-16T13:52:49;101871.53;;;10.42;100.00
60244;BME280;46106;51.468;5.814;2023-02-16T13:55:37;101865.84;;;10.45;100.00
60244;BME280;46106;51.468;5.814;2023-02-16T14:00:42;101870.59;;;10.58;100.00
60244;BME280;46106;51.468;5.814;2023-02-16T14:05:51;101856.97;;;10.71;100.00
60244;BME280;46106;51.468;5.814;2023-02-16T14:13:30;101854.13;;;10.87;100.00
60244;BME280;46106;51.468;5.814;2023-02-16T14:16:00;101838.50;;;10.74;100.00
60244;BME280;46106;51.468;5.814;2023-02-16T14:21:36;101828.22;;;10.78;100.00
60244;BME280;46106;51.468;5.814;2023-02-16T14:24:05;101824.47;;;10.79;100.00
60244;BME280;46106;51.468;5.814;2023-02-16T14:26:50;101823.03;;;10.88;100.00
60244;BME280;46106;51.468;5.814;2023-02-16T14:29:17;101831.81;;;10.93;100.00
60244;BME280;46106;51.468;5.814;2023-02-16T14:32:37;101828.50;;;10.88;100.00
60244;BME280;46106;51.468;5.814;2023-02-16T14:35:03;101820.66;;;10.96;100.00
60244;BME280;46106;51.468;5.814;2023-02-16T14:37:37;101822.41;;;10.97;100.00
60244;BME280;46106;51.468;5.814;2023-02-16T14:42:45;101807.66;;;10.85;100.00
60244;BME280;46106;51.468;5.814;2023-02-16T14:45:49;101815.59;;;10.90;100.00
60244;BME280;46106;51.468;5.814;2023-02-16T14:48:34;101816.44;;;10.90;100.00
60244;BME280;46106;51.468;5.814;2023-02-16T14:59:31;101801.50;;;10.96;100.00
60244;BME280;46106;51.468;5.814;2023-02-16T15:01:59;101793.66;;;10.90;100.00
60244;BME280;46106;51.468;5.814;2023-02-16T15:04:32;101796.03;;;10.81;100.00
60244;BME280;46106;51.468;5.814;2023-02-16T15:07:01;101795.06;;;10.82;100.00
60244;BME280;46106;51.468;5.814;2023-02-16T15:09:30;101798.75;;;10.81;100.00
60244;BME280;46106;51.468;5.814;2023-02-16T15:12:06;101789.97;;;10.76;100.00
60244;BME280;46106;51.468;5.814;2023-02-16T15:14:48;101793.28;;;10.81;100.00
60244;BME280;46106;51.468;5.814;2023-02-16T15:19:46;101799.81;;;10.79;100.00
60244;BME280;46106;51.468;5.814;2023-02-16T15:22:18;101801.31;;;10.84;100.00